Fm Prosperity — J8B3932 — position and weather

sailwx.info

Track history (hours):
 
Tides and Currents Weather Stations Pressure Air Temp Water Temp Dewpoint Dewpoint Depression Visibility Wind Speed Wind Dir Waves Ship Positions

Fm Prosperity

Last reported at 2014-Nov-08 03:33 UTC. Time now 2014-Nov-26 00:26 UTC.
Position S 32°48' W 071°37'.
Warning: this ship's position is 17 days out of date.

Length 122 m; draft 5.3 m.

Type: Cargo ship. MMSI: 376746000.

Date/timePositionNaut miles runAvg speedWind from/ knotsBaromVisibWave heightAir tempDewpointWater temp
2014-Nov-08 03:33S 32°48' W 071°37'14 2.6
2014-Nov-07 22:10S 33°02' W 071°38'0 0.0
2014-Nov-07 16:19S 33°02' W 071°38'0 0.0
2014-Nov-07 15:31S 33°02' W 071°38'0 0.0
2014-Nov-06 23:22S 33°02' W 071°38'0 0.0
2014-Nov-06 22:28S 33°02' W 071°38'0 0.0
2014-Nov-06 21:31S 33°02' W 071°38'0 0.0
2014-Nov-06 20:31S 33°02' W 071°38'0 0.0
2014-Nov-06 19:28S 33°02' W 071°38'0 0.0
2014-Nov-06 18:13S 33°02' W 071°38'0 0.0
2014-Nov-06 17:28S 33°02' W 071°38'0 0.0
2014-Nov-06 16:28S 33°02' W 071°38'0 0.0
2014-Nov-06 15:31S 33°02' W 071°38'0 0.0
2014-Nov-06 14:28S 33°02' W 071°38'0 0.0
2014-Nov-06 13:28S 33°02' W 071°38'0 0.0
2014-Nov-06 12:31S 33°02' W 071°38'0 0.0
2014-Nov-06 11:31S 33°02' W 071°38'0 0.0
2014-Nov-06 10:31S 33°02' W 071°38'5 0.4
2014-Nov-05 23:24S 32°58' W 071°35'0 0.5
2014-Nov-05 22:33S 32°58' W 071°35'0 0.4
2014-Nov-05 21:33S 32°58' W 071°35'10 9.8
2014-Nov-05 20:33S 32°49' W 071°41'1110.4
2014-Nov-05 19:32S 32°39' W 071°44'  
Track history (hours):
 
Tides and Currents Weather Stations Pressure Air Temp Water Temp Dewpoint Dewpoint Depression Visibility Wind Speed Wind Dir Waves Ship Positions

Fm Prosperity

Last reported at 2014-Nov-08 03:33 UTC. Time now 2014-Nov-26 00:26 UTC.
Position S 32°48' W 071°37'.
Warning: this ship's position is 17 days out of date.

Length 122 m; draft 5.3 m.

Type: Cargo ship. MMSI: 376746000.

Date/timePositionNaut miles runAvg speedWind from/ knotsBaromVisibWave heightAir tempDewpointWater temp
2014-Nov-08 03:33S 32°48' W 071°37'14 2.6
2014-Nov-07 22:10S 33°02' W 071°38'0 0.0
2014-Nov-07 16:19S 33°02' W 071°38'0 0.0
2014-Nov-07 15:31S 33°02' W 071°38'0 0.0
2014-Nov-06 23:22S 33°02' W 071°38'0 0.0
2014-Nov-06 22:28S 33°02' W 071°38'0 0.0
2014-Nov-06 21:31S 33°02' W 071°38'0 0.0
2014-Nov-06 20:31S 33°02' W 071°38'0 0.0
2014-Nov-06 19:28S 33°02' W 071°38'0 0.0
2014-Nov-06 18:13S 33°02' W 071°38'0 0.0
2014-Nov-06 17:28S 33°02' W 071°38'0 0.0
2014-Nov-06 16:28S 33°02' W 071°38'0 0.0
2014-Nov-06 15:31S 33°02' W 071°38'0 0.0
2014-Nov-06 14:28S 33°02' W 071°38'0 0.0
2014-Nov-06 13:28S 33°02' W 071°38'0 0.0
2014-Nov-06 12:31S 33°02' W 071°38'0 0.0
2014-Nov-06 11:31S 33°02' W 071°38'0 0.0
2014-Nov-06 10:31S 33°02' W 071°38'5 0.4
2014-Nov-05 23:24S 32°58' W 071°35'0 0.5
2014-Nov-05 22:33S 32°58' W 071°35'0 0.4
2014-Nov-05 21:33S 32°58' W 071°35'10 9.8
2014-Nov-05 20:33S 32°49' W 071°41'1110.4
2014-Nov-05 19:32S 32°39' W 071°44'  

Dump ship's entire track history